Time;durP1;ratioP1;P1;durP2;ratioP2;P2;SDS_P1;SDS_P2;PMS_P1;PMS_P2;Temp;Humidity;BMP_temperature;BMP_pressure;BME280_temperature;BME280_humidity;BME280_pressure;Samples;Min_cycle;Max_cycle;Signal;HPM_P1;HPM_P2
2021/06/20 00:01:09;;;;;;;11.60;5.05;;;;;;;;;;5053007;28;20218;-78
2021/06/20 00:03:36;;;;;;;8.55;4.90;;;;;;;;;;5052936;28;20266;-79
2021/06/20 00:06:07;;;;;;;6.20;5.05;;;;;;;;;;5053164;28;20246;-78
2021/06/20 00:08:33;;;;;;;10.43;5.28;;;;;;;;;;5051749;28;20191;-78
2021/06/20 00:11:00;;;;;;;10.48;5.45;;;;;;;;;;5052964;28;20211;-78
2021/06/20 00:13:27;;;;;;;10.48;5.13;;;;;;;;;;5052872;28;20245;-77
2021/06/20 00:15:53;;;;;;;6.10;4.78;;;;;;;;;;5053036;28;20222;-78
2021/06/20 00:18:20;;;;;;;14.00;5.45;;;;;;;;;;5053009;28;20687;-78
2021/06/20 00:20:48;;;;;;;7.35;5.60;;;;;;;;;;5052920;28;20644;-78
2021/06/20 00:23:16;;;;;;;10.23;5.53;;;;;;;;;;5053068;28;20249;-78
2021/06/20 00:25:42;;;;;;;8.48;5.20;;;;;;;;;;5052532;28;20265;-78
2021/06/20 00:28:09;;;;;;;14.70;5.63;;;;;;;;;;5051004;28;20204;-79
2021/06/20 00:30:37;;;;;;;7.38;5.57;;;;;;;;;;5051274;28;20203;-79
2021/06/20 00:33:04;;;;;;;8.13;5.30;;;;;;;;;;5051668;28;20195;-79
2021/06/20 00:35:31;;;;;;;11.45;5.68;;;;;;;;;;5051270;28;20217;-78
2021/06/20 00:37:57;;;;;;;10.35;6.03;;;;;;;;;;5068016;28;20729;-78
2021/06/20 00:40:25;;;;;;;8.18;5.93;;;;;;;;;;5051469;28;20245;-78
2021/06/20 00:42:52;;;;;;;11.38;6.03;;;;;;;;;;5051504;28;20896;-78
2021/06/20 00:45:19;;;;;;;25.63;6.93;;;;;;;;;;5052963;28;20255;-78
2021/06/20 00:47:46;;;;;;;8.70;6.13;;;;;;;;;;5052769;28;20225;-78
2021/06/20 00:50:13;;;;;;;11.93;7.13;;;;;;;;;;5052720;28;20644;-79
2021/06/20 00:52:41;;;;;;;12.05;6.18;;;;;;;;;;5052605;28;20211;-79
2021/06/20 00:55:08;;;;;;;16.83;6.35;;;;;;;;;;5051215;28;20199;-78
2021/06/20 00:57:37;;;;;;;7.70;6.35;;;;;;;;;;5052737;28;20218;-78
2021/06/20 01:00:05;;;;;;;14.90;6.20;;;;;;;;;;5051115;28;20203;-78
2021/06/20 01:02:31;;;;;;;13.13;6.68;;;;;;;;;;5051295;28;20199;-78
2021/06/20 01:04:58;;;;;;;13.45;6.72;;;;;;;;;;5054663;28;20259;-78
2021/06/20 01:07:25;;;;;;;12.70;6.47;;;;;;;;;;5056518;28;20208;-78
2021/06/20 01:09:51;;;;;;;13.13;6.20;;;;;;;;;;5055045;28;20191;-78
2021/06/20 01:12:20;;;;;;;13.57;6.03;;;;;;;;;;5054563;28;20258;-78
2021/06/20 01:14:49;;;;;;;10.73;5.85;;;;;;;;;;5056007;28;20584;-78
2021/06/20 01:17:16;;;;;;;21.55;6.22;;;;;;;;;;5056230;28;20215;-78
2021/06/20 01:19:43;;;;;;;28.40;6.50;;;;;;;;;;5056300;28;20187;-79
2021/06/20 01:22:27;;;;;;;14.80;6.63;;;;;;;;;;5056356;28;20234;-78
2021/06/20 01:24:56;;;;;;;22.05;6.13;;;;;;;;;;5054592;28;20265;-78
2021/06/20 01:27:24;;;;;;;15.43;5.35;;;;;;;;;;5055453;28;20243;-78
2021/06/20 01:29:51;;;;;;;17.70;5.50;;;;;;;;;;5055854;28;20208;-79
2021/06/20 01:32:18;;;;;;;20.17;5.72;;;;;;;;;;5054526;28;20551;-78
2021/06/20 01:34:45;;;;;;;19.05;6.00;;;;;;;;;;5055957;28;20207;-78
2021/06/20 01:37:12;;;;;;;18.35;5.50;;;;;;;;;;5055695;28;20207;-78
2021/06/20 01:39:39;;;;;;;14.10;5.40;;;;;;;;;;5055553;28;20215;-79
2021/06/20 01:42:09;;;;;;;15.90;6.43;;;;;;;;;;5055466;28;20250;-79
2021/06/20 01:44:44;;;;;;;19.55;6.15;;;;;;;;;;5054443;28;20243;-79
2021/06/20 01:47:11;;;;;;;16.15;5.53;;;;;;;;;;5055453;28;20203;-78
2021/06/20 01:49:37;;;;;;;17.95;5.05;;;;;;;;;;5055705;28;20184;-78
2021/06/20 01:52:04;;;;;;;13.43;4.38;;;;;;;;;;5055696;28;20223;-79
2021/06/20 01:54:33;;;;;;;14.35;4.68;;;;;;;;;;5053994;28;20192;-78
2021/06/20 01:57:00;;;;;;;10.85;4.32;;;;;;;;;;5055261;28;20231;-78
2021/06/20 01:59:28;;;;;;;12.68;4.63;;;;;;;;;;5053969;28;20195;-78
2021/06/20 02:01:55;;;;;;;13.60;4.35;;;;;;;;;;5054148;28;20195;-79
2021/06/20 02:04:21;;;;;;;15.88;4.85;;;;;;;;;;5055147;28;20270;-78
2021/06/20 02:06:48;;;;;;;11.95;4.28;;;;;;;;;;5053588;28;20610;-78
2021/06/20 02:09:15;;;;;;;16.45;4.57;;;;;;;;;;5055289;28;20245;-79
2021/06/20 02:11:41;;;;;;;15.70;4.38;;;;;;;;;;5055209;28;20211;-78
2021/06/20 02:14:08;;;;;;;14.35;3.88;;;;;;;;;;5055033;28;20250;-79
2021/06/20 02:16:36;;;;;;;10.38;4.00;;;;;;;;;;5054610;28;20196;-78
2021/06/20 02:19:03;;;;;;;14.80;4.55;;;;;;;;;;5053798;28;20219;-78
2021/06/20 02:21:30;;;;;;;9.45;3.85;;;;;;;;;;5054750;28;20556;-78
2021/06/20 02:23:56;;;;;;;10.65;3.67;;;;;;;;;;5053768;28;20204;-78
2021/06/20 02:26:23;;;;;;;11.18;4.25;;;;;;;;;;5053358;28;20266;-78
2021/06/20 02:28:49;;;;;;;12.50;4.22;;;;;;;;;;5054653;28;20238;-77
2021/06/20 02:31:16;;;;;;;11.68;3.67;;;;;;;;;;5053313;28;20265;-79
2021/06/20 02:33:44;;;;;;;13.90;4.20;;;;;;;;;;5053201;28;20839;-78
2021/06/20 02:36:11;;;;;;;10.65;4.03;;;;;;;;;;5055071;28;20212;-79
2021/06/20 02:38:38;;;;;;;9.68;3.50;;;;;;;;;;5053316;28;20195;-79
2021/06/20 02:41:04;;;;;;;12.35;3.97;;;;;;;;;;5054707;28;20238;-79
2021/06/20 02:43:31;;;;;;;14.05;4.03;;;;;;;;;;5054503;28;20218;-78
2021/06/20 02:45:58;;;;;;;10.77;3.95;;;;;;;;;;5052896;28;20243;-78
2021/06/20 02:48:24;;;;;;;8.88;3.40;;;;;;;;;;5053192;28;20208;-78
2021/06/20 02:50:52;;;;;;;12.45;3.50;;;;;;;;;;5052860;28;20199;-78
2021/06/20 02:53:19;;;;;;;8.90;3.20;;;;;;;;;;5052613;28;20226;-79
2021/06/20 02:55:45;;;;;;;8.40;3.35;;;;;;;;;;5052935;28;20199;-79
2021/06/20 02:58:12;;;;;;;9.18;3.03;;;;;;;;;;5069408;28;20191;-78
2021/06/20 03:00:39;;;;;;;8.00;3.30;;;;;;;;;;5069789;28;20592;-79
2021/06/20 03:03:06;;;;;;;12.43;3.88;;;;;;;;;;5054031;28;20176;-77
2021/06/20 03:05:32;;;;;;;7.18;2.50;;;;;;;;;;5053543;28;20265;-77
2021/06/20 03:08:01;;;;;;;9.27;3.63;;;;;;;;;;5052543;28;20301;-79
2021/06/20 03:10:27;;;;;;;8.23;3.28;;;;;;;;;;5053978;28;20210;-77
2021/06/20 03:12:54;;;;;;;11.38;2.95;;;;;;;;;;5054586;28;20247;-77
2021/06/20 03:15:20;;;;;;;6.30;3.00;;;;;;;;;;5052120;28;20972;-77
2021/06/20 03:17:47;;;;;;;7.13;3.10;;;;;;;;;;5069463;28;20199;-77
2021/06/20 03:20:14;;;;;;;9.73;3.08;;;;;;;;;;5053045;28;20551;-80
2021/06/20 03:22:41;;;;;;;10.73;3.42;;;;;;;;;;5054207;28;20207;-80
2021/06/20 03:25:10;;;;;;;9.38;2.75;;;;;;;;;;5051692;28;20711;-79
2021/06/20 03:27:37;;;;;;;11.55;3.05;;;;;;;;;;5051474;28;20223;-79
2021/06/20 03:30:04;;;;;;;6.95;3.28;;;;;;;;;;5053510;28;20187;-79
2021/06/20 03:32:31;;;;;;;6.93;2.80;;;;;;;;;;5053735;28;20207;-79
2021/06/20 03:34:57;;;;;;;7.78;3.10;;;;;;;;;;5053330;28;20211;-79
2021/06/20 03:37:24;;;;;;;6.07;2.63;;;;;;;;;;5053735;28;20226;-79
2021/06/20 03:39:51;;;;;;;8.45;2.85;;;;;;;;;;5053073;28;20631;-79
2021/06/20 03:42:19;;;;;;;6.40;2.50;;;;;;;;;;5053067;28;20250;-79
2021/06/20 03:44:46;;;;;;;9.27;3.08;;;;;;;;;;5051662;28;20225;-78
2021/06/20 03:47:13;;;;;;;3.13;2.40;;;;;;;;;;5053326;28;20238;-78
2021/06/20 03:49:39;;;;;;;8.30;2.60;;;;;;;;;;5051863;28;20203;-78
2021/06/20 03:52:06;;;;;;;5.15;2.97;;;;;;;;;;5052061;28;20203;-79
2021/06/20 03:54:33;;;;;;;7.90;2.63;;;;;;;;;;5053200;28;20239;-79
2021/06/20 03:57:00;;;;;;;4.70;2.75;;;;;;;;;;5051310;28;20199;-79
2021/06/20 03:59:29;;;;;;;11.30;3.03;;;;;;;;;;5051958;28;20656;-79
2021/06/20 04:01:56;;;;;;;8.60;2.60;;;;;;;;;;5051830;28;20203;-78
2021/06/20 04:04:22;;;;;;;6.38;2.60;;;;;;;;;;5053079;28;20636;-78
2021/06/20 04:06:49;;;;;;;9.30;2.80;;;;;;;;;;5053280;28;20226;-79
2021/06/20 04:09:16;;;;;;;5.53;2.58;;;;;;;;;;5053091;28;20234;-79
2021/06/20 04:11:43;;;;;;;5.88;2.90;;;;;;;;;;5053162;28;20253;-79
2021/06/20 04:14:09;;;;;;;9.40;2.28;;;;;;;;;;5051494;28;20188;-79
2021/06/20 04:16:37;;;;;;;5.70;2.45;;;;;;;;;;5052813;28;20207;-78
2021/06/20 04:19:04;;;;;;;8.88;3.20;;;;;;;;;;5053270;28;20218;-79
2021/06/20 04:21:31;;;;;;;7.63;2.80;;;;;;;;;;5053360;28;20216;-79
2021/06/20 04:23:57;;;;;;;6.72;2.85;;;;;;;;;;5051531;28;20231;-79
2021/06/20 04:26:24;;;;;;;7.68;2.60;;;;;;;;;;5052820;28;20247;-78
2021/06/20 04:28:51;;;;;;;9.65;2.70;;;;;;;;;;5053023;28;20215;-79
2021/06/20 04:31:17;;;;;;;5.43;3.05;;;;;;;;;;5053274;28;20243;-79
2021/06/20 04:33:46;;;;;;;7.82;2.33;;;;;;;;;;5052785;28;20207;-79
2021/06/20 04:36:12;;;;;;;5.22;2.22;;;;;;;;;;5053038;28;20187;-78
2021/06/20 04:38:39;;;;;;;2.35;1.75;;;;;;;;;;5054666;28;20247;-78
2021/06/20 04:41:07;;;;;;;5.43;1.80;;;;;;;;;;5054937;28;20867;-78
2021/06/20 04:43:45;;;;;;;4.90;1.98;;;;;;;;;;5055224;28;20664;-79
2021/06/20 04:46:22;;;;;;;1.90;1.70;;;;;;;;;;5056724;28;20238;-79
2021/06/20 04:48:51;;;;;;;8.63;1.83;;;;;;;;;;5055271;28;20648;-78
2021/06/20 04:51:18;;;;;;;2.67;1.65;;;;;;;;;;5056660;28;20204;-79
2021/06/20 04:53:44;;;;;;;6.22;1.90;;;;;;;;;;5056764;28;20612;-78
2021/06/20 04:56:11;;;;;;;7.10;2.28;;;;;;;;;;5056449;28;20183;-78
2021/06/20 04:58:38;;;;;;;6.00;2.10;;;;;;;;;;5055568;28;20547;-79
2021/06/20 05:01:04;;;;;;;3.10;1.65;;;;;;;;;;5056434;28;20211;-78
2021/06/20 05:03:31;;;;;;;4.40;1.70;;;;;;;;;;5055895;28;20562;-79
2021/06/20 05:05:59;;;;;;;2.90;1.67;;;;;;;;;;5055248;28;20247;-79
2021/06/20 05:08:26;;;;;;;4.15;2.20;;;;;;;;;;5054866;28;20233;-79
2021/06/20 05:10:53;;;;;;;2.35;1.95;;;;;;;;;;5056286;28;20179;-78
2021/06/20 05:13:20;;;;;;;3.67;1.52;;;;;;;;;;5055310;28;20766;-78
2021/06/20 05:15:46;;;;;;;7.63;2.15;;;;;;;;;;5056330;28;20683;-79
2021/06/20 05:18:13;;;;;;;2.92;1.73;;;;;;;;;;5056448;28;20717;-78
2021/06/20 05:20:40;;;;;;;2.60;1.92;;;;;;;;;;5056286;28;20239;-77
2021/06/20 05:23:08;;;;;;;2.05;1.80;;;;;;;;;;5054596;28;20210;-78
2021/06/20 05:25:35;;;;;;;6.38;1.88;;;;;;;;;;5055963;28;20242;-78
2021/06/20 05:28:01;;;;;;;4.65;1.77;;;;;;;;;;5056016;28;20679;-79
2021/06/20 05:30:28;;;;;;;4.10;1.90;;;;;;;;;;5055875;28;20290;-78
2021/06/20 05:32:55;;;;;;;5.45;1.80;;;;;;;;;;5054986;28;20204;-78
2021/06/20 05:35:22;;;;;;;4.88;2.10;;;;;;;;;;5055936;28;20218;-78
2021/06/20 05:37:48;;;;;;;2.65;1.60;;;;;;;;;;5054586;28;20180;-78
2021/06/20 05:40:16;;;;;;;5.35;2.13;;;;;;;;;;5054312;28;20203;-77
2021/06/20 05:42:43;;;;;;;2.53;1.73;;;;;;;;;;5055886;28;20239;-78
2021/06/20 05:45:10;;;;;;;1.83;1.65;;;;;;;;;;5054012;28;20540;-78
2021/06/20 05:47:37;;;;;;;5.50;1.90;;;;;;;;;;5055551;28;20262;-79
2021/06/20 05:50:04;;;;;;;5.05;2.05;;;;;;;;;;5053426;28;20199;-80
2021/06/20 05:52:31;;;;;;;3.50;1.80;;;;;;;;;;5055416;28;20231;-79
2021/06/20 05:54:58;;;;;;;3.50;2.08;;;;;;;;;;5055657;28;20222;-80
2021/06/20 05:57:26;;;;;;;6.78;1.65;;;;;;;;;;5054280;28;20196;-77
2021/06/20 05:59:52;;;;;;;3.90;2.13;;;;;;;;;;5055401;28;20208;-79
2021/06/20 06:02:19;;;;;;;6.13;1.90;;;;;;;;;;5055298;28;20230;-79
2021/06/20 06:04:46;;;;;;;4.97;1.90;;;;;;;;;;5054111;28;20231;-80
2021/06/20 06:07:13;;;;;;;4.45;1.90;;;;;;;;;;5053795;28;20559;-79
2021/06/20 06:09:40;;;;;;;2.80;2.00;;;;;;;;;;5055117;28;20667;-80
2021/06/20 06:12:07;;;;;;;7.25;1.73;;;;;;;;;;5055223;28;20195;-77
2021/06/20 06:14:35;;;;;;;2.35;1.80;;;;;;;;;;5054156;28;20660;-77
2021/06/20 06:17:01;;;;;;;3.63;1.98;;;;;;;;;;5055202;28;20230;-79
2021/06/20 06:19:28;;;;;;;3.88;2.15;;;;;;;;;;5055059;28;20239;-78
2021/06/20 06:21:55;;;;;;;5.10;1.70;;;;;;;;;;5055012;28;20249;-81
2021/06/20 06:24:21;;;;;;;6.32;1.60;;;;;;;;;;5053629;28;20192;-80
2021/06/20 06:26:48;;;;;;;4.15;2.10;;;;;;;;;;5054651;28;20701;-79
2021/06/20 06:29:15;;;;;;;3.40;1.95;;;;;;;;;;5053735;28;20644;-80
2021/06/20 06:31:43;;;;;;;2.33;1.85;;;;;;;;;;5054698;28;20222;-79
2021/06/20 06:34:09;;;;;;;4.50;1.85;;;;;;;;;;5069782;28;20665;-79
2021/06/20 06:36:37;;;;;;;4.07;1.90;;;;;;;;;;5054269;28;20216;-80
2021/06/20 06:39:03;;;;;;;3.30;2.05;;;;;;;;;;5053010;28;20261;-79
2021/06/20 06:41:31;;;;;;;2.35;1.67;;;;;;;;;;5054506;28;20604;-79
2021/06/20 06:43:58;;;;;;;3.70;1.98;;;;;;;;;;5053157;28;20187;-79
2021/06/20 06:46:24;;;;;;;2.92;1.73;;;;;;;;;;5053246;28;20726;-79
2021/06/20 06:48:53;;;;;;;4.25;2.00;;;;;;;;;;5052909;28;20278;-80
2021/06/20 06:51:19;;;;;;;2.20;1.70;;;;;;;;;;5054204;28;20273;-81
2021/06/20 06:53:46;;;;;;;2.00;1.90;;;;;;;;;;5054174;28;20687;-80
2021/06/20 06:56:13;;;;;;;2.60;1.88;;;;;;;;;;5052858;28;20215;-79
2021/06/20 06:58:39;;;;;;;5.68;2.25;;;;;;;;;;5054098;28;20204;-79
2021/06/20 07:01:06;;;;;;;3.97;2.20;;;;;;;;;;5053976;28;20262;-79
2021/06/20 07:03:33;;;;;;;6.00;2.13;;;;;;;;;;5052427;28;20207;-80
2021/06/20 07:06:01;;;;;;;3.33;1.92;;;;;;;;;;5052570;28;20568;-79
2021/06/20 07:08:28;;;;;;;1.80;1.70;;;;;;;;;;5054380;28;20274;-79
2021/06/20 07:10:54;;;;;;;3.63;1.90;;;;;;;;;;5054023;28;20227;-79
2021/06/20 07:13:21;;;;;;;6.35;2.00;;;;;;;;;;5053714;28;20230;-77
2021/06/20 07:15:48;;;;;;;2.75;1.63;;;;;;;;;;5052558;28;20235;-80
2021/06/20 07:18:15;;;;;;;3.72;1.88;;;;;;;;;;5053810;28;20204;-79
2021/06/20 07:20:42;;;;;;;6.38;1.95;;;;;;;;;;5052492;28;20525;-80
2021/06/20 07:23:10;;;;;;;2.35;1.77;;;;;;;;;;5053505;28;20212;-79
2021/06/20 07:25:36;;;;;;;1.67;1.50;;;;;;;;;;5053451;28;20614;-80
2021/06/20 07:28:05;;;;;;;3.88;2.10;;;;;;;;;;5051616;28;20250;-80
2021/06/20 07:30:32;;;;;;;4.70;1.67;;;;;;;;;;5054008;28;20206;-80
2021/06/20 07:32:58;;;;;;;2.20;2.00;;;;;;;;;;5051992;28;20722;-80
2021/06/20 07:35:25;;;;;;;2.15;1.95;;;;;;;;;;5052319;28;20234;-79
2021/06/20 07:37:52;;;;;;;2.30;2.10;;;;;;;;;;5051907;28;20211;-81
2021/06/20 07:40:20;;;;;;;5.80;2.25;;;;;;;;;;5052311;28;20207;-79
2021/06/20 07:42:46;;;;;;;3.03;1.70;;;;;;;;;;5053085;28;20187;-79
2021/06/20 07:45:14;;;;;;;3.72;1.70;;;;;;;;;;5052193;28;20556;-80
2021/06/20 07:47:41;;;;;;;3.33;1.90;;;;;;;;;;5052978;28;20259;-80
2021/06/20 07:50:09;;;;;;;1.80;1.70;;;;;;;;;;5051335;28;20292;-79
2021/06/20 07:52:35;;;;;;;5.43;1.88;;;;;;;;;;5051421;28;20261;-79
2021/06/20 07:55:02;;;;;;;2.70;1.58;;;;;;;;;;5053507;28;20242;-80
2021/06/20 07:57:30;;;;;;;3.53;1.80;;;;;;;;;;5052916;28;20235;-80
2021/06/20 07:59:59;;;;;;;3.35;1.83;;;;;;;;;;5053199;28;20235;-82
2021/06/20 08:02:26;;;;;;;3.05;1.90;;;;;;;;;;5051426;28;20559;-80
2021/06/20 08:04:53;;;;;;;2.65;1.80;;;;;;;;;;5051626;28;20778;-78
2021/06/20 08:07:19;;;;;;;3.15;1.80;;;;;;;;;;5051788;28;20768;-81
2021/06/20 08:09:46;;;;;;;4.65;1.77;;;;;;;;;;5052762;28;20211;-79
2021/06/20 08:12:13;;;;;;;4.13;2.10;;;;;;;;;;5051812;28;20563;-78
2021/06/20 08:14:41;;;;;;;4.97;2.30;;;;;;;;;;5074680;28;20229;-78
2021/06/20 08:17:09;;;;;;;3.55;1.98;;;;;;;;;;5058288;28;20203;-78
2021/06/20 08:19:36;;;;;;;6.18;1.83;;;;;;;;;;5059694;28;20551;-78
2021/06/20 08:22:03;;;;;;;3.25;2.10;;;;;;;;;;5059992;28;20529;-78
2021/06/20 08:24:29;;;;;;;3.28;2.15;;;;;;;;;;5059869;28;20744;-78
2021/06/20 08:26:56;;;;;;;7.25;1.95;;;;;;;;;;5059343;28;20321;-80
2021/06/20 08:29:23;;;;;;;4.22;2.03;;;;;;;;;;5059466;28;20207;-79
2021/06/20 08:31:51;;;;;;;3.20;1.90;;;;;;;;;;5074733;28;20245;-78
2021/06/20 08:34:18;;;;;;;4.55;2.08;;;;;;;;;;5059068;28;20218;-78
2021/06/20 08:36:44;;;;;;;2.47;1.90;;;;;;;;;;5059388;28;20242;-79
2021/06/20 08:39:11;;;;;;;1.95;1.80;;;;;;;;;;5058091;28;20195;-80
2021/06/20 08:41:39;;;;;;;2.25;1.85;;;;;;;;;;5057971;28;20404;-79
2021/06/20 08:44:14;;;;;;;5.63;2.38;;;;;;;;;;5059487;28;20239;-78
2021/06/20 08:46:41;;;;;;;4.05;2.28;;;;;;;;;;5058005;28;20206;-80
2021/06/20 08:49:11;;;;;;;2.47;2.08;;;;;;;;;;5057897;28;20246;-81
2021/06/20 08:51:38;;;;;;;5.15;2.70;;;;;;;;;;5074435;28;20376;-80
2021/06/20 08:54:05;;;;;;;4.25;2.25;;;;;;;;;;5057960;28;20702;-80
2021/06/20 08:56:31;;;;;;;2.75;2.05;;;;;;;;;;5057311;28;20675;-80
2021/06/20 08:58:58;;;;;;;3.72;1.75;;;;;;;;;;5057842;28;20214;-79
2021/06/20 09:01:25;;;;;;;3.53;2.30;;;;;;;;;;5057950;28;20183;-78
2021/06/20 09:03:51;;;;;;;2.85;2.15;;;;;;;;;;5059161;28;20639;-78
2021/06/20 09:06:20;;;;;;;2.88;2.20;;;;;;;;;;5057732;28;20566;-79
2021/06/20 09:08:48;;;;;;;4.57;2.17;;;;;;;;;;5057819;28;20247;-81
2021/06/20 09:11:27;;;;;;;2.88;2.30;;;;;;;;;;5058740;28;20691;-80
2021/06/20 09:14:01;;;;;;;6.35;2.55;;;;;;;;;;5059184;28;20249;-80
2021/06/20 09:16:27;;;;;;;2.38;2.17;;;;;;;;;;5041125;28;20192;-82
2021/06/20 09:18:54;;;;;;;4.95;1.88;;;;;;;;;;5058974;28;20210;-82
2021/06/20 09:21:24;;;;;;;2.65;2.00;;;;;;;;;;5057734;28;20200;-82
2021/06/20 09:23:51;;;;;;;3.83;2.00;;;;;;;;;;5056942;28;20659;-81
2021/06/20 09:26:18;;;;;;;3.28;2.50;;;;;;;;;;5054938;28;20228;-84
2021/06/20 09:28:48;;;;;;;4.18;2.17;;;;;;;;;;5055970;28;20231;-84
2021/06/20 09:31:14;;;;;;;5.30;1.98;;;;;;;;;;5055942;28;20882;-81
2021/06/20 09:33:41;;;;;;;2.28;2.05;;;;;;;;;;5054667;28;20203;-82
2021/06/20 09:36:07;;;;;;;4.38;2.30;;;;;;;;;;5055440;28;20203;-82
2021/06/20 09:38:38;;;;;;;3.92;1.98;;;;;;;;;;5054535;28;20184;-82
2021/06/20 09:41:06;;;;;;;5.20;2.22;;;;;;;;;;5055371;28;20239;-83
2021/06/20 09:43:33;;;;;;;3.08;1.90;;;;;;;;;;5055940;28;20211;-83
2021/06/20 09:46:01;;;;;;;3.95;2.20;;;;;;;;;;5055513;28;20183;-82
2021/06/20 09:48:29;;;;;;;3.22;2.30;;;;;;;;;;5054004;28;20300;-82
2021/06/20 09:50:56;;;;;;;4.03;2.08;;;;;;;;;;5055445;28;20215;-81
2021/06/20 09:53:33;;;;;;;3.47;1.85;;;;;;;;;;5055494;28;20215;-81
2021/06/20 09:56:28;;;;;;;5.72;2.03;;;;;;;;;;5055143;28;20676;-82
2021/06/20 09:58:58;;;;;;;4.32;2.40;;;;;;;;;;5055954;28;20182;-81
2021/06/20 10:01:25;;;;;;;7.63;2.08;;;;;;;;;;5054097;28;20203;-80
2021/06/20 10:03:52;;;;;;;4.28;2.50;;;;;;;;;;5053691;28;20259;-80
2021/06/20 10:06:18;;;;;;;4.18;2.08;;;;;;;;;;5053690;28;20269;-79
2021/06/20 10:08:45;;;;;;;3.15;2.08;;;;;;;;;;5053548;28;20235;-82
2021/06/20 10:11:12;;;;;;;3.33;1.90;;;;;;;;;;5053304;28;20203;-80
2021/06/20 10:13:41;;;;;;;4.05;2.65;;;;;;;;;;5053704;28;20249;-80
2021/06/20 10:16:16;;;;;;;4.72;2.05;;;;;;;;;;5053480;28;20219;-80
2021/06/20 10:18:46;;;;;;;2.47;2.08;;;;;;;;;;5053585;28;20183;-79
2021/06/20 10:21:13;;;;;;;3.50;2.50;;;;;;;;;;5053372;28;20200;-81
2021/06/20 10:23:40;;;;;;;2.90;2.45;;;;;;;;;;5053367;28;20249;-80
2021/06/20 10:26:07;;;;;;;3.10;2.10;;;;;;;;;;5052977;28;20226;-79
2021/06/20 10:28:34;;;;;;;3.60;2.20;;;;;;;;;;5054847;28;20296;-80
2021/06/20 10:31:07;;;;;;;3.05;2.03;;;;;;;;;;5054794;28;20595;-80
2021/06/20 10:33:34;;;;;;;4.15;2.00;;;;;;;;;;5054638;28;20203;-79
2021/06/20 10:36:03;;;;;;;2.95;2.30;;;;;;;;;;5053905;28;20239;-81
2021/06/20 10:38:30;;;;;;;2.65;1.95;;;;;;;;;;5053291;28;20574;-80
2021/06/20 10:40:57;;;;;;;4.35;2.30;;;;;;;;;;5053419;28;20207;-80
2021/06/20 10:43:24;;;;;;;3.58;2.08;;;;;;;;;;5053151;28;20226;-79
2021/06/20 10:45:50;;;;;;;6.15;2.80;;;;;;;;;;5052816;28;20265;-78
2021/06/20 10:48:19;;;;;;;4.72;2.38;;;;;;;;;;5052989;28;20269;-79
2021/06/20 10:50:47;;;;;;;3.38;2.08;;;;;;;;;;5052577;28;20225;-79
2021/06/20 10:53:15;;;;;;;2.72;2.00;;;;;;;;;;5052722;28;20648;-77
2021/06/20 10:55:44;;;;;;;4.10;1.98;;;;;;;;;;5054145;28;20313;-77
2021/06/20 10:58:21;;;;;;;3.83;2.22;;;;;;;;;;5054072;28;20539;-77
2021/06/20 11:00:48;;;;;;;5.82;2.35;;;;;;;;;;5052625;28;20188;-78
2021/06/20 11:03:15;;;;;;;5.88;2.50;;;;;;;;;;5052552;28;20195;-81
2021/06/20 11:05:47;;;;;;;3.33;2.20;;;;;;;;;;5052436;28;20207;-78
2021/06/20 11:08:24;;;;;;;2.25;1.90;;;;;;;;;;5052341;28;20774;-78
2021/06/20 11:10:50;;;;;;;4.25;2.20;;;;;;;;;;5053793;28;20241;-77
2021/06/20 11:13:22;;;;;;;4.97;2.28;;;;;;;;;;5052406;28;20612;-77
2021/06/20 11:15:49;;;;;;;3.90;2.25;;;;;;;;;;5052204;28;20253;-79
2021/06/20 11:18:19;;;;;;;3.38;2.15;;;;;;;;;;5052584;28;20203;-77
2021/06/20 11:20:50;;;;;;;4.75;2.28;;;;;;;;;;5053698;28;20207;-77
2021/06/20 11:23:17;;;;;;;3.83;2.10;;;;;;;;;;5052292;28;20200;-76
2021/06/20 11:25:44;;;;;;;5.85;1.92;;;;;;;;;;5051676;28;20253;-79
2021/06/20 11:28:16;;;;;;;3.83;2.35;;;;;;;;;;5053255;28;20252;-78
2021/06/20 11:30:43;;;;;;;1.95;1.85;;;;;;;;;;5052028;28;20195;-78
2021/06/20 11:33:09;;;;;;;2.83;1.90;;;;;;;;;;5053267;28;20243;-78
2021/06/20 11:35:38;;;;;;;1.80;1.70;;;;;;;;;;5053424;28;20214;-79
2021/06/20 11:38:06;;;;;;;3.33;1.83;;;;;;;;;;5051671;28;20737;-80
2021/06/20 11:40:33;;;;;;;2.15;1.80;;;;;;;;;;5053424;28;20680;-79
2021/06/20 11:43:00;;;;;;;4.28;2.13;;;;;;;;;;5053366;28;20246;-81
2021/06/20 11:45:28;;;;;;;1.75;1.63;;;;;;;;;;5051757;28;20214;-80
2021/06/20 11:47:56;;;;;;;3.05;2.03;;;;;;;;;;5051292;28;20195;-79
2021/06/20 11:50:25;;;;;;;4.50;2.10;;;;;;;;;;5053141;28;20266;-78
2021/06/20 11:52:57;;;;;;;4.03;1.90;;;;;;;;;;5053096;28;20737;-79
2021/06/20 11:55:26;;;;;;;2.63;1.70;;;;;;;;;;5051592;28;20203;-77
2021/06/20 11:57:54;;;;;;;8.05;2.42;;;;;;;;;;5051583;28;20213;-79
2021/06/20 12:00:22;;;;;;;9.73;2.97;;;;;;;;;;5052581;28;20195;-78
2021/06/20 12:02:58;;;;;;;5.57;2.45;;;;;;;;;;5052993;28;20620;-79
2021/06/20 12:05:24;;;;;;;4.25;2.10;;;;;;;;;;5051173;28;20285;-79
2021/06/20 12:07:53;;;;;;;3.13;1.77;;;;;;;;;;5051404;28;20199;-80
2021/06/20 12:10:20;;;;;;;5.97;2.20;;;;;;;;;;5050890;28;20319;-78
2021/06/20 12:12:58;;;;;;;4.45;2.55;;;;;;;;;;5051602;28;20199;-79
2021/06/20 12:15:24;;;;;;;3.00;1.98;;;;;;;;;;5051182;28;20237;-78
2021/06/20 12:17:51;;;;;;;3.63;2.10;;;;;;;;;;5050808;28;20261;-78
2021/06/20 12:20:28;;;;;;;4.18;2.17;;;;;;;;;;5051047;28;20195;-78
2021/06/20 12:22:54;;;;;;;3.80;2.17;;;;;;;;;;5053262;28;20230;-78
2021/06/20 12:25:21;;;;;;;4.70;2.22;;;;;;;;;;5051263;28;20195;-79
2021/06/20 12:27:49;;;;;;;6.70;2.50;;;;;;;;;;5051227;28;20223;-78
2021/06/20 12:30:17;;;;;;;5.00;2.30;;;;;;;;;;5050961;28;20683;-77
2021/06/20 12:32:44;;;;;;;3.92;2.35;;;;;;;;;;5052236;28;20235;-77
2021/06/20 12:35:18;;;;;;;2.88;2.20;;;;;;;;;;5050974;28;20218;-78
2021/06/20 12:37:44;;;;;;;5.30;2.53;;;;;;;;;;5051194;28;20577;-79
2021/06/20 12:40:13;;;;;;;4.10;2.50;;;;;;;;;;5052256;28;20663;-79
2021/06/20 12:42:44;;;;;;;5.68;1.88;;;;;;;;;;5051294;28;20233;-78
2021/06/20 12:45:19;;;;;;;5.78;2.70;;;;;;;;;;5052166;28;20207;-78
2021/06/20 12:47:46;;;;;;;4.07;2.45;;;;;;;;;;5052320;28;20640;-78
2021/06/20 12:50:12;;;;;;;7.15;2.58;;;;;;;;;;5067453;28;20224;-78
2021/06/20 12:52:39;;;;;;;4.30;2.40;;;;;;;;;;5051144;28;20230;-78
2021/06/20 12:55:14;;;;;;;6.43;2.30;;;;;;;;;;5050769;28;20253;-78
2021/06/20 12:57:49;;;;;;;7.82;2.50;;;;;;;;;;5052302;28;20179;-78
2021/06/20 13:00:16;;;;;;;4.68;2.58;;;;;;;;;;5053491;28;20694;-79
2021/06/20 13:02:49;;;;;;;7.70;2.58;;;;;;;;;;5054725;28;20199;-78
2021/06/20 13:05:27;;;;;;;8.98;2.58;;;;;;;;;;5055772;28;20228;-80
2021/06/20 13:07:54;;;;;;;9.43;2.95;;;;;;;;;;5055011;28;20671;-78
2021/06/20 13:10:21;;;;;;;4.60;2.38;;;;;;;;;;5055803;28;20585;-80
2021/06/20 13:12:48;;;;;;;3.28;2.22;;;;;;;;;;5055112;28;20245;-83
2021/06/20 13:15:15;;;;;;;9.18;2.60;;;;;;;;;;5054438;28;20960;-82
2021/06/20 13:17:44;;;;;;;7.10;2.75;;;;;;;;;;5054612;28;20207;-77
2021/06/20 13:20:11;;;;;;;11.45;3.10;;;;;;;;;;5054326;28;20199;-78
2021/06/20 13:22:38;;;;;;;4.07;2.40;;;;;;;;;;5054688;28;20211;-77
2021/06/20 13:25:06;;;;;;;7.45;2.75;;;;;;;;;;5055438;28;20207;-78
2021/06/20 13:27:33;;;;;;;6.32;2.95;;;;;;;;;;5071149;28;20284;-77
2021/06/20 13:29:59;;;;;;;5.90;2.58;;;;;;;;;;5054136;28;20246;-78
2021/06/20 13:32:27;;;;;;;4.55;2.50;;;;;;;;;;5055763;28;20210;-78
2021/06/20 13:34:55;;;;;;;6.05;2.53;;;;;;;;;;5055708;28;20238;-78
2021/06/20 13:37:23;;;;;;;9.50;3.08;;;;;;;;;;5055834;28;20211;-77
2021/06/20 13:39:49;;;;;;;8.95;3.25;;;;;;;;;;5055559;28;20203;-79
2021/06/20 13:42:16;;;;;;;6.65;2.60;;;;;;;;;;5054383;28;20187;-78
2021/06/20 13:44:43;;;;;;;9.82;2.70;;;;;;;;;;5055148;28;20180;-78
2021/06/20 13:47:10;;;;;;;8.50;2.75;;;;;;;;;;5054034;28;20278;-80
2021/06/20 13:49:37;;;;;;;12.68;3.13;;;;;;;;;;5070465;28;20215;-79
2021/06/20 13:52:06;;;;;;;9.82;2.95;;;;;;;;;;5054660;28;20203;-80
2021/06/20 13:54:32;;;;;;;8.98;3.00;;;;;;;;;;5055684;28;20184;-79
2021/06/20 13:56:59;;;;;;;11.15;3.10;;;;;;;;;;5054115;28;20203;-80
2021/06/20 13:59:26;;;;;;;10.75;2.95;;;;;;;;;;5053812;28;20218;-79
2021/06/20 14:01:53;;;;;;;10.57;3.20;;;;;;;;;;5055180;28;20249;-79
2021/06/20 14:04:20;;;;;;;6.32;2.88;;;;;;;;;;5053340;28;20235;-80
2021/06/20 14:06:47;;;;;;;10.45;3.50;;;;;;;;;;5070318;28;20207;-79
2021/06/20 14:09:15;;;;;;;6.32;3.03;;;;;;;;;;5053636;28;20203;-80
2021/06/20 14:11:41;;;;;;;8.30;3.35;;;;;;;;;;5052881;28;20219;-78
2021/06/20 14:14:08;;;;;;;8.60;3.40;;;;;;;;;;5053311;28;20566;-81
2021/06/20 14:16:35;;;;;;;9.85;3.30;;;;;;;;;;5053628;28;20192;-78
2021/06/20 14:19:01;;;;;;;7.25;2.95;;;;;;;;;;5053574;28;20619;-80
2021/06/20 14:21:28;;;;;;;8.63;3.17;;;;;;;;;;5055146;28;20587;-79
2021/06/20 14:23:55;;;;;;;9.77;3.28;;;;;;;;;;5054503;28;20686;-79
2021/06/20 14:26:23;;;;;;;9.43;5.10;;;;;;;;;;5054412;28;20254;-80
2021/06/20 14:28:50;;;;;;;10.98;4.80;;;;;;;;;;5053309;28;20204;-80
2021/06/20 14:31:16;;;;;;;8.75;3.67;;;;;;;;;;5054334;28;20677;-80
2021/06/20 14:33:43;;;;;;;5.82;3.47;;;;;;;;;;5055156;28;20214;-78
2021/06/20 14:36:10;;;;;;;7.30;3.28;;;;;;;;;;5053451;28;20195;-78
2021/06/20 14:38:37;;;;;;;6.68;3.00;;;;;;;;;;5053452;28;20713;-79
2021/06/20 14:41:04;;;;;;;12.27;3.10;;;;;;;;;;5053063;28;20211;-79
2021/06/20 14:43:32;;;;;;;10.20;3.30;;;;;;;;;;5053220;28;20191;-79